Time;durP1;ratioP1;P1;durP2;ratioP2;P2;SDS_P1;SDS_P2;PMS_P1;PMS_P2;Temp;Humidity;BMP_temperature;BMP_pressure;BME280_temperature;BME280_humidity;BME280_pressure;Samples;Min_cycle;Max_cycle;Signal;HPM_P1;HPM_P2
2022/03/18 00:00:16;;;;;;;;;;;;;;;;;;1035506;28;834;-39
2022/03/18 00:00:47;;;;;;;;;;;;;;;;;;1035191;28;858;-36
2022/03/18 00:01:17;;;;;;;;;;;;;;;;;;1035452;28;843;-37
2022/03/18 00:01:48;;;;;;;;;;;;;;;;;;1035102;28;934;-38
2022/03/18 00:02:21;;;;;;;;;;;;;;;;;;1035045;28;953;-35
2022/03/18 00:02:55;;;;;;;;;;;;;;;;;;1035165;28;858;-40
2022/03/18 00:03:25;;;;;;;;;;;;;;;;;;1035536;28;878;-39
2022/03/18 00:03:55;;;;;;;;;;;;;;;;;;1035257;28;907;-37
2022/03/18 00:04:26;;;;;;;;;;;;;;;;;;1035496;28;937;-38
2022/03/18 00:04:56;;;;;;;;;;;;;;;;;;1035075;28;969;-38
2022/03/18 00:05:26;;;;;;;;;;;;;;;;;;1035506;28;997;-36
2022/03/18 00:05:57;;;;;;;;;;;;;;;;;;1035234;28;996;-39
2022/03/18 00:06:27;;;;;;;;;;;;;;;;;;1038146;28;1173;-39
2022/03/18 00:06:58;;;;;;;;;;;;;;;;;;1039115;28;819;-39
2022/03/18 00:07:29;;;;;;;;;;;;;;;;;;1039534;28;1902;-37
2022/03/18 00:07:59;;;;;;;;;;;;;;;;;;1039200;28;865;-38
2022/03/18 00:08:29;;;;;;;;;;;;;;;;;;1039477;28;1824;-38
2022/03/18 00:09:00;;;;;;;;;;;;;;;;;;1039262;28;1040;-37
2022/03/18 00:09:30;;;;;;;;;;;;;;;;;;1038798;28;941;-36
2022/03/18 00:10:00;;;;;;;;;;;;;;;;;;1038589;28;1316;-38
2022/03/18 00:10:31;;;;;;;;;;;;;;;;;;1039564;28;1209;-38
2022/03/18 00:11:02;;;;;;;;;;;;;;;;;;1039041;28;891;-39
2022/03/18 00:11:33;;;;;;;;;;;;;;;;;;1040317;28;837;-36
2022/03/18 00:12:03;;;;;;;;;;;;;;;;;;1040044;28;838;-37
2022/03/18 00:12:34;;;;;;;;;;;;;;;;;;1040299;28;823;-38
2022/03/18 00:13:04;;;;;;;;;;;;;;;;;;1040126;28;799;-38
2022/03/18 00:13:34;;;;;;;;;;;;;;;;;;1039505;28;1316;-36
2022/03/18 00:14:05;;;;;;;;;;;;;;;;;;1040243;28;981;-38
2022/03/18 00:14:35;;;;;;;;;;;;;;;;;;1040187;28;905;-38
2022/03/18 00:15:06;;;;;;;;;;;;;;;;;;1039989;28;770;-38
2022/03/18 00:15:37;;;;;;;;;;;;;;;;;;1040234;28;867;-38
2022/03/18 00:16:07;;;;;;;;;;;;;;;;;;1039971;28;878;-38
2022/03/18 00:16:37;;;;;;;;;;;;;;;;;;1039887;28;922;-37
2022/03/18 00:17:08;;;;;;;;;;;;;;;;;;1039798;28;973;-37
2022/03/18 00:17:39;;;;;;;;;;;;;;;;;;1040065;28;965;-38
2022/03/18 00:18:09;;;;;;;;;;;;;;;;;;1040018;28;1379;-36
2022/03/18 00:18:39;;;;;;;;;;;;;;;;;;1040186;28;925;-38
2022/03/18 00:19:09;;;;;;;;;;;;;;;;;;1040099;28;851;-38
2022/03/18 00:19:40;;;;;;;;;;;;;;;;;;1040140;28;952;-38
2022/03/18 00:20:12;;;;;;;;;;;;;;;;;;1040031;28;933;-37
2022/03/18 00:20:42;;;;;;;;;;;;;;;;;;1040111;28;895;-36
2022/03/18 00:21:13;;;;;;;;;;;;;;;;;;1040221;28;938;-38
2022/03/18 00:21:43;;;;;;;;;;;;;;;;;;1040037;28;851;-38
2022/03/18 00:22:14;;;;;;;;;;;;;;;;;;1040190;28;937;-38
2022/03/18 00:22:45;;;;;;;;;;;;;;;;;;1040071;28;997;-38
2022/03/18 00:23:16;;;;;;;;;;;;;;;;;;1040148;28;885;-38
2022/03/18 00:23:46;;;;;;;;;;;;;;;;;;1040209;28;818;-38
2022/03/18 00:24:16;;;;;;;;;;;;;;;;;;1039344;28;917;-38
2022/03/18 00:24:47;;;;;;;;;;;;;;;;;;1040196;28;811;-38
2022/03/18 00:25:17;;;;;;;;;;;;;;;;;;1039889;28;1199;-37
2022/03/18 00:25:48;;;;;;;;;;;;;;;;;;1040246;28;903;-38
2022/03/18 00:26:18;;;;;;;;;;;;;;;;;;1040098;28;858;-37
2022/03/18 00:26:49;;;;;;;;;;;;;;;;;;1040047;28;1592;-38
2022/03/18 00:27:19;;;;;;;;;;;;;;;;;;1040038;28;1906;-37
2022/03/18 00:27:49;;;;;;;;;;;;;;;;;;1039919;28;1012;-38
2022/03/18 00:28:19;;;;;;;;;;;;;;;;;;1035355;28;1062;-38
2022/03/18 00:28:50;;;;;;;;;;;;;;;;;;1035826;28;938;-38
2022/03/18 00:29:20;;;;;;;;;;;;;;;;;;1035482;28;894;-37
2022/03/18 00:29:51;;;;;;;;;;;;;;;;;;1031603;28;2125;-38
2022/03/18 00:30:21;;;;;;;;;;;;;;;;;;1035641;28;894;-37
2022/03/18 00:30:52;;;;;;;;;;;;;;;;;;1035590;28;922;-38
2022/03/18 00:31:22;;;;;;;;;;;;;;;;;;1035591;28;895;-39
2022/03/18 00:31:53;;;;;;;;;;;;;;;;;;1039490;28;953;-38
2022/03/18 00:32:24;;;;;;;;;;;;;;;;;;1039928;28;878;-37
2022/03/18 00:32:55;;;;;;;;;;;;;;;;;;1040049;28;993;-38
2022/03/18 00:33:25;;;;;;;;;;;;;;;;;;1039991;28;992;-38
2022/03/18 00:33:55;;;;;;;;;;;;;;;;;;1040143;28;895;-38
2022/03/18 00:34:26;;;;;;;;;;;;;;;;;;1040044;28;927;-37
2022/03/18 00:34:56;;;;;;;;;;;;;;;;;;1039974;28;930;-37
2022/03/18 00:35:26;;;;;;;;;;;;;;;;;;1040096;28;1225;-37
2022/03/18 00:35:57;;;;;;;;;;;;;;;;;;1039998;28;839;-38
2022/03/18 00:36:27;;;;;;;;;;;;;;;;;;1040061;28;835;-38
2022/03/18 00:36:57;;;;;;;;;;;;;;;;;;1040030;28;1080;-38
2022/03/18 00:37:28;;;;;;;;;;;;;;;;;;1039903;28;942;-38
2022/03/18 00:38:02;;;;;;;;;;;;;;;;;;1039948;28;1032;-38
2022/03/18 00:38:32;;;;;;;;;;;;;;;;;;1040030;28;1374;-38
2022/03/18 00:39:03;;;;;;;;;;;;;;;;;;1039364;28;949;-38
2022/03/18 00:39:33;;;;;;;;;;;;;;;;;;1040133;28;867;-38
2022/03/18 00:40:04;;;;;;;;;;;;;;;;;;1035406;28;1112;-38
2022/03/18 00:40:35;;;;;;;;;;;;;;;;;;1035457;28;974;-36
2022/03/18 00:41:06;;;;;;;;;;;;;;;;;;1035607;28;887;-38
2022/03/18 00:41:36;;;;;;;;;;;;;;;;;;1035759;28;898;-37
2022/03/18 00:42:07;;;;;;;;;;;;;;;;;;1040147;28;740;-38
2022/03/18 00:42:37;;;;;;;;;;;;;;;;;;1039920;28;867;-38
2022/03/18 00:43:07;;;;;;;;;;;;;;;;;;1040042;28;946;-37
2022/03/18 00:43:39;;;;;;;;;;;;;;;;;;1039947;28;914;-37
2022/03/18 00:44:09;;;;;;;;;;;;;;;;;;1040084;28;814;-38
2022/03/18 00:44:40;;;;;;;;;;;;;;;;;;1039952;28;886;-37
2022/03/18 00:45:10;;;;;;;;;;;;;;;;;;1040027;28;842;-36
2022/03/18 00:45:40;;;;;;;;;;;;;;;;;;1040042;28;950;-37
2022/03/18 00:46:11;;;;;;;;;;;;;;;;;;1039991;28;925;-36
2022/03/18 00:46:41;;;;;;;;;;;;;;;;;;1039314;28;825;-37
2022/03/18 00:52:06;;;;;;;;;;;;;;;;;;1040004;28;931;-36
2022/03/18 00:52:37;;;;;;;;;;;;;;;;;;1040012;28;905;-38
2022/03/18 00:53:08;;;;;;;;;;;;;;;;;;1039887;28;993;-39
2022/03/18 00:53:38;;;;;;;;;;;;;;;;;;1039494;28;942;-38
2022/03/18 00:54:09;;;;;;;;;;;;;;;;;;1039765;28;933;-36
2022/03/18 00:54:40;;;;;;;;;;;;;;;;;;1039882;28;894;-38
2022/03/18 00:55:10;;;;;;;;;;;;;;;;;;1039976;28;957;-38
2022/03/18 00:55:40;;;;;;;;;;;;;;;;;;1039857;28;938;-37
2022/03/18 00:56:11;;;;;;;;;;;;;;;;;;1039985;28;937;-37
2022/03/18 00:56:41;;;;;;;;;;;;;;;;;;1039548;28;783;-38
2022/03/18 00:57:13;;;;;;;;;;;;;;;;;;1039561;28;984;-36
2022/03/18 00:57:43;;;;;;;;;;;;;;;;;;1039534;28;806;-39
2022/03/18 00:58:14;;;;;;;;;;;;;;;;;;1039575;28;847;-38
2022/03/18 00:58:44;;;;;;;;;;;;;;;;;;1039976;28;929;-38
2022/03/18 00:59:15;;;;;;;;;;;;;;;;;;1039871;28;895;-36
2022/03/18 00:59:46;;;;;;;;;;;;;;;;;;1039926;28;839;-37
2022/03/18 01:00:16;;;;;;;;;;;;;;;;;;1040035;28;891;-35
2022/03/18 01:00:46;;;;;;;;;;;;;;;;;;1040068;28;925;-37
2022/03/18 01:01:16;;;;;;;;;;;;;;;;;;1039209;28;886;-38
2022/03/18 01:01:52;;;;;;;;;;;;;;;;;;1040010;28;874;-36
2022/03/18 01:02:22;;;;;;;;;;;;;;;;;;1039906;28;895;-36
2022/03/18 01:02:52;;;;;;;;;;;;;;;;;;1040047;28;800;-37
2022/03/18 01:03:23;;;;;;;;;;;;;;;;;;1039921;28;902;-37
2022/03/18 01:03:53;;;;;;;;;;;;;;;;;;1039905;28;839;-37
2022/03/18 01:04:24;;;;;;;;;;;;;;;;;;1039916;28;854;-38
2022/03/18 01:04:54;;;;;;;;;;;;;;;;;;1039889;28;934;-38
2022/03/18 01:05:25;;;;;;;;;;;;;;;;;;1039978;28;1001;-37
2022/03/18 01:05:55;;;;;;;;;;;;;;;;;;1035373;28;637;-37
2022/03/18 01:06:25;;;;;;;;;;;;;;;;;;1035525;28;835;-37
2022/03/18 01:06:56;;;;;;;;;;;;;;;;;;1035345;28;1017;-36
2022/03/18 01:07:28;;;;;;;;;;;;;;;;;;1035558;28;1957;-37
2022/03/18 01:07:59;;;;;;;;;;;;;;;;;;1039632;28;850;-38
2022/03/18 01:08:29;;;;;;;;;;;;;;;;;;1039444;28;918;-35
2022/03/18 01:09:00;;;;;;;;;;;;;;;;;;1039673;28;870;-38
2022/03/18 01:09:30;;;;;;;;;;;;;;;;;;1040120;28;957;-34
2022/03/18 01:10:01;;;;;;;;;;;;;;;;;;1039862;28;871;-37
2022/03/18 01:10:31;;;;;;;;;;;;;;;;;;1039849;28;1600;-37
2022/03/18 01:11:03;;;;;;;;;;;;;;;;;;1039826;28;779;-37
2022/03/18 01:11:33;;;;;;;;;;;;;;;;;;1039978;28;879;-38
2022/03/18 01:12:04;;;;;;;;;;;;;;;;;;1039616;28;902;-37
2022/03/18 01:12:34;;;;;;;;;;;;;;;;;;1039961;28;1024;-37
2022/03/18 01:13:04;;;;;;;;;;;;;;;;;;1039744;28;990;-35
2022/03/18 01:13:35;;;;;;;;;;;;;;;;;;1039911;28;863;-36
2022/03/18 01:14:05;;;;;;;;;;;;;;;;;;1039789;28;874;-36
2022/03/18 01:14:35;;;;;;;;;;;;;;;;;;1039903;28;819;-38
2022/03/18 01:15:07;;;;;;;;;;;;;;;;;;1039927;28;843;-38
2022/03/18 01:15:37;;;;;;;;;;;;;;;;;;1039805;28;671;-37
2022/03/18 01:16:08;;;;;;;;;;;;;;;;;;1039217;28;803;-39
2022/03/18 01:16:38;;;;;;;;;;;;;;;;;;1039966;28;851;-38
2022/03/18 01:17:08;;;;;;;;;;;;;;;;;;1039735;28;965;-37
2022/03/18 01:17:40;;;;;;;;;;;;;;;;;;1040013;28;832;-38
2022/03/18 01:18:11;;;;;;;;;;;;;;;;;;1039608;28;882;-37
2022/03/18 01:18:41;;;;;;;;;;;;;;;;;;1039912;28;916;-38
2022/03/18 01:19:12;;;;;;;;;;;;;;;;;;1039902;28;929;-36
2022/03/18 01:19:43;;;;;;;;;;;;;;;;;;1039817;28;1010;-38
2022/03/18 01:20:13;;;;;;;;;;;;;;;;;;1039921;28;894;-38
2022/03/18 01:20:44;;;;;;;;;;;;;;;;;;1039904;28;941;-36
2022/03/18 01:21:14;;;;;;;;;;;;;;;;;;1039738;28;899;-38
2022/03/18 01:21:45;;;;;;;;;;;;;;;;;;1035574;28;914;-37
2022/03/18 01:22:15;;;;;;;;;;;;;;;;;;1035257;28;812;-38
2022/03/18 01:22:45;;;;;;;;;;;;;;;;;;1035167;28;850;-37
2022/03/18 01:23:16;;;;;;;;;;;;;;;;;;1034466;28;882;-38
2022/03/18 01:23:46;;;;;;;;;;;;;;;;;;1039796;28;839;-37
2022/03/18 01:24:17;;;;;;;;;;;;;;;;;;1036209;28;1052;-38
2022/03/18 01:24:48;;;;;;;;;;;;;;;;;;1035840;28;945;-39
2022/03/18 01:25:18;;;;;;;;;;;;;;;;;;1037935;28;1177;-37
2022/03/18 01:25:48;;;;;;;;;;;;;;;;;;1039989;28;939;-38
2022/03/18 01:26:19;;;;;;;;;;;;;;;;;;1039654;28;961;-38
2022/03/18 01:26:49;;;;;;;;;;;;;;;;;;1040029;28;875;-38
2022/03/18 01:27:20;;;;;;;;;;;;;;;;;;1039540;28;1980;-37
2022/03/18 01:27:50;;;;;;;;;;;;;;;;;;1039913;28;1004;-40
2022/03/18 01:28:21;;;;;;;;;;;;;;;;;;1039721;28;814;-37
2022/03/18 01:28:52;;;;;;;;;;;;;;;;;;1039830;28;925;-37
2022/03/18 01:29:23;;;;;;;;;;;;;;;;;;1039830;28;866;-38
2022/03/18 01:29:53;;;;;;;;;;;;;;;;;;1040065;28;842;-37
2022/03/18 01:30:24;;;;;;;;;;;;;;;;;;1039610;28;909;-37
2022/03/18 01:30:54;;;;;;;;;;;;;;;;;;1039233;28;886;-37
2022/03/18 01:31:26;;;;;;;;;;;;;;;;;;1039767;28;834;-38
2022/03/18 01:31:57;;;;;;;;;;;;;;;;;;1039947;28;778;-37
2022/03/18 01:32:27;;;;;;;;;;;;;;;;;;1039806;28;890;-38
2022/03/18 01:33:01;;;;;;;;;;;;;;;;;;1039755;28;937;-38
2022/03/18 01:33:33;;;;;;;;;;;;;;;;;;1039840;28;914;-38
2022/03/18 01:34:04;;;;;;;;;;;;;;;;;;1039860;28;779;-37
2022/03/18 01:34:34;;;;;;;;;;;;;;;;;;1039855;28;871;-36
2022/03/18 01:35:05;;;;;;;;;;;;;;;;;;1039482;28;1307;-36
2022/03/18 01:35:37;;;;;;;;;;;;;;;;;;1039354;28;858;-38
2022/03/18 01:36:07;;;;;;;;;;;;;;;;;;1039610;28;870;-36
2022/03/18 01:36:38;;;;;;;;;;;;;;;;;;1039363;28;799;-37
2022/03/18 01:37:08;;;;;;;;;;;;;;;;;;1039858;28;1048;-37
2022/03/18 01:37:38;;;;;;;;;;;;;;;;;;1039718;28;925;-38
2022/03/18 01:38:09;;;;;;;;;;;;;;;;;;1039028;28;882;-36
2022/03/18 01:38:39;;;;;;;;;;;;;;;;;;1039769;28;879;-38
2022/03/18 01:39:10;;;;;;;;;;;;;;;;;;1039830;28;906;-37
2022/03/18 01:39:41;;;;;;;;;;;;;;;;;;1039722;28;949;-38
2022/03/18 01:40:11;;;;;;;;;;;;;;;;;;1040009;28;802;-37
2022/03/18 01:40:42;;;;;;;;;;;;;;;;;;1039620;28;786;-37
2022/03/18 01:41:12;;;;;;;;;;;;;;;;;;1039868;28;914;-37
2022/03/18 01:41:42;;;;;;;;;;;;;;;;;;1039466;28;835;-37
2022/03/18 01:42:13;;;;;;;;;;;;;;;;;;1039364;28;862;-37
2022/03/18 01:42:43;;;;;;;;;;;;;;;;;;1039334;28;1065;-38
2022/03/18 01:43:13;;;;;;;;;;;;;;;;;;1039295;28;978;-36
2022/03/18 01:43:46;;;;;;;;;;;;;;;;;;1039818;28;839;-36
2022/03/18 01:44:17;;;;;;;;;;;;;;;;;;1039723;28;984;-37
2022/03/18 01:44:48;;;;;;;;;;;;;;;;;;1039824;28;871;-38
2022/03/18 01:45:18;;;;;;;;;;;;;;;;;;1039695;28;973;-36
2022/03/18 01:45:50;;;;;;;;;;;;;;;;;;1039197;28;807;-38
2022/03/18 01:46:21;;;;;;;;;;;;;;;;;;1039636;28;977;-37
2022/03/18 01:46:52;;;;;;;;;;;;;;;;;;1039829;28;866;-37
2022/03/18 01:47:22;;;;;;;;;;;;;;;;;;1035358;28;1910;-37
2022/03/18 01:47:53;;;;;;;;;;;;;;;;;;1035595;28;775;-37
2022/03/18 01:48:23;;;;;;;;;;;;;;;;;;1035770;28;1009;-37
2022/03/18 01:48:54;;;;;;;;;;;;;;;;;;1035669;28;965;-38
2022/03/18 01:49:25;;;;;;;;;;;;;;;;;;1035678;28;1171;-38
2022/03/18 01:49:58;;;;;;;;;;;;;;;;;;1035525;28;974;-36
2022/03/18 01:50:28;;;;;;;;;;;;;;;;;;1035611;28;973;-38
2022/03/18 01:50:59;;;;;;;;;;;;;;;;;;1035730;28;842;-37
2022/03/18 01:51:29;;;;;;;;;;;;;;;;;;1035721;28;879;-37
2022/03/18 01:52:00;;;;;;;;;;;;;;;;;;1035604;28;866;-37
2022/03/18 01:52:30;;;;;;;;;;;;;;;;;;1035593;28;962;-36
2022/03/18 01:53:01;;;;;;;;;;;;;;;;;;1035075;28;859;-39
2022/03/18 01:53:33;;;;;;;;;;;;;;;;;;1035798;28;822;-38
2022/03/18 01:54:53;;;;;;;;;;;;;;;;;;1035718;28;1187;-38
2022/03/18 01:55:24;;;;;;;;;;;;;;;;;;1035687;28;843;-37
2022/03/18 01:55:55;;;;;;;;;;;;;;;;;;1035711;28;1181;-36
2022/03/18 01:56:26;;;;;;;;;;;;;;;;;;1035697;28;842;-37
2022/03/18 01:56:56;;;;;;;;;;;;;;;;;;1031231;28;1252;-37
2022/03/18 01:57:27;;;;;;;;;;;;;;;;;;1031280;28;823;-38
2022/03/18 01:58:00;;;;;;;;;;;;;;;;;;1031070;28;867;-38
2022/03/18 01:58:30;;;;;;;;;;;;;;;;;;1027614;28;910;-38
2022/03/18 01:59:00;;;;;;;;;;;;;;;;;;1031199;28;894;-37
2022/03/18 01:59:32;;;;;;;;;;;;;;;;;;1031274;28;1036;-37
2022/03/18 02:00:04;;;;;;;;;;;;;;;;;;1031516;28;883;-38
2022/03/18 02:00:42;;;;;;;;;;;;;;;;;;1034998;28;656;-38
2022/03/18 02:01:12;;;;;;;;;;;;;;;;;;1035748;28;886;-37
2022/03/18 02:01:42;;;;;;;;;;;;;;;;;;1035562;28;1116;-37
2022/03/18 02:02:13;;;;;;;;;;;;;;;;;;1035628;28;1040;-37
2022/03/18 02:02:43;;;;;;;;;;;;;;;;;;1035629;28;882;-38
2022/03/18 02:03:13;;;;;;;;;;;;;;;;;;1035592;28;811;-37
2022/03/18 02:03:44;;;;;;;;;;;;;;;;;;1035642;28;898;-38
2022/03/18 02:04:14;;;;;;;;;;;;;;;;;;1035715;28;788;-38
2022/03/18 02:04:45;;;;;;;;;;;;;;;;;;1035414;28;953;-38
2022/03/18 02:05:16;;;;;;;;;;;;;;;;;;1035762;28;842;-37
2022/03/18 02:05:46;;;;;;;;;;;;;;;;;;1035569;28;899;-38
2022/03/18 02:06:17;;;;;;;;;;;;;;;;;;1035868;28;954;-37
2022/03/18 02:06:47;;;;;;;;;;;;;;;;;;1035390;28;943;-38
2022/03/18 02:07:18;;;;;;;;;;;;;;;;;;1033709;28;1906;-38
2022/03/18 02:07:48;;;;;;;;;;;;;;;;;;1030716;28;871;-37
2022/03/18 02:08:20;;;;;;;;;;;;;;;;;;1031736;28;814;-37
2022/03/18 02:08:50;;;;;;;;;;;;;;;;;;1031355;28;791;-34
2022/03/18 02:09:20;;;;;;;;;;;;;;;;;;1031709;28;969;-37
2022/03/18 02:09:51;;;;;;;;;;;;;;;;;;1031376;28;937;-37
2022/03/18 02:10:21;;;;;;;;;;;;;;;;;;1031680;28;847;-37
2022/03/18 02:10:51;;;;;;;;;;;;;;;;;;1031443;28;847;-36
2022/03/18 02:11:22;;;;;;;;;;;;;;;;;;1031631;28;909;-37
2022/03/18 02:11:53;;;;;;;;;;;;;;;;;;1031491;28;1003;-38
2022/03/18 02:12:24;;;;;;;;;;;;;;;;;;1031674;28;893;-37
2022/03/18 02:12:54;;;;;;;;;;;;;;;;;;1031432;28;939;-37
2022/03/18 02:13:24;;;;;;;;;;;;;;;;;;1031694;28;846;-37
2022/03/18 02:13:57;;;;;;;;;;;;;;;;;;1026929;28;662;-37
2022/03/18 02:14:35;;;;;;;;;;;;;;;;;;1027127;28;1432;-35
2022/03/18 02:15:05;;;;;;;;;;;;;;;;;;1022475;29;1178;-38
2022/03/18 02:15:36;;;;;;;;;;;;;;;;;;1024600;28;784;-37
2022/03/18 02:16:06;;;;;;;;;;;;;;;;;;1027092;28;1715;-38
2022/03/18 02:16:39;;;;;;;;;;;;;;;;;;1027242;28;883;-35
2022/03/18 02:17:11;;;;;;;;;;;;;;;;;;1031459;28;934;-35
2022/03/18 02:17:41;;;;;;;;;;;;;;;;;;1031564;28;819;-37
2022/03/18 02:18:11;;;;;;;;;;;;;;;;;;1031434;28;906;-36
2022/03/18 02:18:42;;;;;;;;;;;;;;;;;;1031550;28;954;-37
2022/03/18 02:19:12;;;;;;;;;;;;;;;;;;1031326;28;910;-38
2022/03/18 02:19:47;;;;;;;;;;;;;;;;;;1031587;28;950;-41
2022/03/18 02:20:17;;;;;;;;;;;;;;;;;;1031520;28;844;-37
2022/03/18 02:20:47;;;;;;;;;;;;;;;;;;1031527;28;882;-36
2022/03/18 02:21:18;;;;;;;;;;;;;;;;;;1031546;28;890;-36
2022/03/18 02:21:50;;;;;;;;;;;;;;;;;;1031398;28;958;-37
2022/03/18 02:22:25;;;;;;;;;;;;;;;;;;1031602;28;958;-37
2022/03/18 02:22:55;;;;;;;;;;;;;;;;;;1030921;28;799;-37
2022/03/18 02:23:26;;;;;;;;;;;;;;;;;;1031429;28;863;-38
2022/03/18 02:23:56;;;;;;;;;;;;;;;;;;1031267;28;957;-36
2022/03/18 02:24:27;;;;;;;;;;;;;;;;;;1031359;28;914;-37
2022/03/18 02:24:57;;;;;;;;;;;;;;;;;;1031594;28;946;-36
2022/03/18 02:25:28;;;;;;;;;;;;;;;;;;1034837;28;1158;-36
2022/03/18 02:25:58;;;;;;;;;;;;;;;;;;1035533;28;787;-37
2022/03/18 02:26:28;;;;;;;;;;;;;;;;;;1035627;28;894;-37
2022/03/18 02:26:59;;;;;;;;;;;;;;;;;;1035482;28;930;-36
2022/03/18 02:27:29;;;;;;;;;;;;;;;;;;1035435;28;1902;-37
2022/03/18 02:28:01;;;;;;;;;;;;;;;;;;1035345;28;1538;-38
2022/03/18 02:28:31;;;;;;;;;;;;;;;;;;1035529;28;823;-36
2022/03/18 02:29:01;;;;;;;;;;;;;;;;;;1035534;28;981;-36
2022/03/18 02:29:32;;;;;;;;;;;;;;;;;;1035515;28;890;-38
2022/03/18 02:30:05;;;;;;;;;;;;;;;;;;1034831;28;919;-37
2022/03/18 02:30:36;;;;;;;;;;;;;;;;;;1035676;28;883;-37
2022/03/18 02:31:06;;;;;;;;;;;;;;;;;;1035414;28;969;-38
2022/03/18 02:31:37;;;;;;;;;;;;;;;;;;1035649;28;954;-38
2022/03/18 02:32:07;;;;;;;;;;;;;;;;;;1035374;28;938;-37
2022/03/18 02:32:38;;;;;;;;;;;;;;;;;;1035684;28;965;-38
2022/03/18 02:33:10;;;;;;;;;;;;;;;;;;1035423;28;883;-37
2022/03/18 02:33:40;;;;;;;;;;;;;;;;;;1035515;28;815;-38
2022/03/18 02:34:10;;;;;;;;;;;;;;;;;;1035307;28;1014;-38
2022/03/18 02:34:41;;;;;;;;;;;;;;;;;;1035524;28;824;-36
2022/03/18 02:35:11;;;;;;;;;;;;;;;;;;1035370;28;1272;-37
2022/03/18 02:35:42;;;;;;;;;;;;;;;;;;1035719;28;882;-38
2022/03/18 02:36:12;;;;;;;;;;;;;;;;;;1035296;28;1006;-38
2022/03/18 02:36:43;;;;;;;;;;;;;;;;;;1035709;28;838;-38
2022/03/18 02:37:13;;;;;;;;;;;;;;;;;;1035173;28;815;-35
2022/03/18 02:37:44;;;;;;;;;;;;;;;;;;1035091;28;807;-38
2022/03/18 02:38:14;;;;;;;;;;;;;;;;;;1035400;28;903;-36
2022/03/18 02:38:44;;;;;;;;;;;;;;;;;;1035602;28;863;-37
2022/03/18 02:39:15;;;;;;;;;;;;;;;;;;1035408;28;911;-36
2022/03/18 02:39:45;;;;;;;;;;;;;;;;;;1035615;28;954;-38
2022/03/18 02:40:15;;;;;;;;;;;;;;;;;;1035295;28;918;-37
2022/03/18 02:40:46;;;;;;;;;;;;;;;;;;1035560;28;859;-37
2022/03/18 02:41:16;;;;;;;;;;;;;;;;;;1035493;28;926;-37
2022/03/18 02:41:47;;;;;;;;;;;;;;;;;;1035467;28;1025;-37
2022/03/18 02:42:18;;;;;;;;;;;;;;;;;;1035469;28;970;-38
2022/03/18 02:42:48;;;;;;;;;;;;;;;;;;1035445;28;843;-37
2022/03/18 02:43:19;;;;;;;;;;;;;;;;;;1035507;28;966;-36
2022/03/18 02:43:49;;;;;;;;;;;;;;;;;;1035491;28;891;-37
2022/03/18 02:44:19;;;;;;;;;;;;;;;;;;1035362;28;1041;-39
2022/03/18 02:44:50;;;;;;;;;;;;;;;;;;1034772;28;923;-38
2022/03/18 02:45:20;;;;;;;;;;;;;;;;;;1035547;28;783;-37
2022/03/18 02:45:51;;;;;;;;;;;;;;;;;;1035415;28;1035;-37
2022/03/18 02:46:21;;;;;;;;;;;;;;;;;;1035605;28;875;-36
2022/03/18 02:46:52;;;;;;;;;;;;;;;;;;1035238;28;894;-38
2022/03/18 02:47:24;;;;;;;;;;;;;;;;;;1039372;28;1918;-36
2022/03/18 02:47:54;;;;;;;;;;;;;;;;;;1039319;28;894;-38
2022/03/18 02:48:25;;;;;;;;;;;;;;;;;;1039660;28;882;-37
2022/03/18 02:48:55;;;;;;;;;;;;;;;;;;1039564;28;815;-38
2022/03/18 02:49:26;;;;;;;;;;;;;;;;;;1039514;28;957;-36
2022/03/18 02:49:56;;;;;;;;;;;;;;;;;;1039600;28;826;-38
2022/03/18 02:50:27;;;;;;;;;;;;;;;;;;1039492;28;843;-36
2022/03/18 02:50:57;;;;;;;;;;;;;;;;;;1039556;28;812;-38
2022/03/18 02:51:28;;;;;;;;;;;;;;;;;;1039517;28;926;-38
2022/03/18 02:51:58;;;;;;;;;;;;;;;;;;1039507;28;918;-40
2022/03/18 02:52:29;;;;;;;;;;;;;;;;;;1038957;28;1177;-37
2022/03/18 02:52:59;;;;;;;;;;;;;;;;;;1039462;28;942;-38
2022/03/18 02:53:30;;;;;;;;;;;;;;;;;;1039446;28;927;-38
2022/03/18 02:54:00;;;;;;;;;;;;;;;;;;1039655;28;890;-37
2022/03/18 02:54:32;;;;;;;;;;;;;;;;;;1039529;28;815;-38
2022/03/18 02:55:03;;;;;;;;;;;;;;;;;;1039491;28;1005;-37
2022/03/18 02:55:33;;;;;;;;;;;;;;;;;;1039612;28;847;-38
2022/03/18 02:56:04;;;;;;;;;;;;;;;;;;1039515;28;937;-38
2022/03/18 02:56:35;;;;;;;;;;;;;;;;;;1039524;28;969;-38
2022/03/18 02:57:06;;;;;;;;;;;;;;;;;;1039538;28;1021;-38
2022/03/18 02:57:37;;;;;;;;;;;;;;;;;;1039582;28;925;-37
2022/03/18 02:58:07;;;;;;;;;;;;;;;;;;1039521;28;830;-36
2022/03/18 02:58:37;;;;;;;;;;;;;;;;;;1039524;28;1000;-37
2022/03/18 02:59:08;;;;;;;;;;;;;;;;;;1039489;28;843;-38
2022/03/18 02:59:39;;;;;;;;;;;;;;;;;;1039010;28;890;-38
2022/03/18 03:00:09;;;;;;;;;;;;;;;;;;1039392;28;922;-38
2022/03/18 03:00:39;;;;;;;;;;;;;;;;;;1039706;28;1257;-38
2022/03/18 03:01:10;;;;;;;;;;;;;;;;;;1039438;28;871;-38
2022/03/18 03:01:40;;;;;;;;;;;;;;;;;;1039643;28;855;-38
2022/03/18 03:02:12;;;;;;;;;;;;;;;;;;1039488;28;949;-37
2022/03/18 03:02:42;;;;;;;;;;;;;;;;;;1039443;28;1639;-38
2022/03/18 03:03:12;;;;;;;;;;;;;;;;;;1039434;28;966;-38
2022/03/18 03:03:43;;;;;;;;;;;;;;;;;;1039607;28;839;-38
2022/03/18 03:04:14;;;;;;;;;;;;;;;;;;1039531;28;858;-37
2022/03/18 03:08:00;;;;;;;;;;;;;;;;;;1035184;28;809;-37
2022/03/18 03:08:31;;;;;;;;;;;;;;;;;;1035547;28;950;-36
2022/03/18 03:09:02;;;;;;;;;;;;;;;;;;1035446;28;902;-38
2022/03/18 03:09:32;;;;;;;;;;;;;;;;;;1035407;28;938;-37
2022/03/18 03:10:02;;;;;;;;;;;;;;;;;;1035494;28;803;-38
2022/03/18 03:10:34;;;;;;;;;;;;;;;;;;1035388;28;883;-37
2022/03/18 03:11:04;;;;;;;;;;;;;;;;;;1035462;28;949;-36
2022/03/18 03:11:34;;;;;;;;;;;;;;;;;;1035435;28;946;-37
2022/03/18 03:12:05;;;;;;;;;;;;;;;;;;1035325;28;883;-37
2022/03/18 03:12:35;;;;;;;;;;;;;;;;;;1035508;28;1013;-36
2022/03/18 03:13:10;;;;;;;;;;;;;;;;;;1035272;28;970;-36
2022/03/18 03:13:40;;;;;;;;;;;;;;;;;;1035573;28;800;-37
2022/03/18 03:14:11;;;;;;;;;;;;;;;;;;1035297;28;854;-38
2022/03/18 03:14:41;;;;;;;;;;;;;;;;;;1034904;28;1008;-39
2022/03/18 03:15:12;;;;;;;;;;;;;;;;;;1035322;28;876;-37
2022/03/18 03:15:42;;;;;;;;;;;;;;;;;;1035583;28;830;-38
2022/03/18 03:16:13;;;;;;;;;;;;;;;;;;1035333;28;883;-37
2022/03/18 03:16:43;;;;;;;;;;;;;;;;;;1035685;28;838;-35
2022/03/18 03:17:14;;;;;;;;;;;;;;;;;;1035196;28;911;-37
2022/03/18 03:17:44;;;;;;;;;;;;;;;;;;1035479;28;835;-38
2022/03/18 03:18:14;;;;;;;;;;;;;;;;;;1035320;28;853;-37
2022/03/18 03:18:46;;;;;;;;;;;;;;;;;;1035532;28;851;-35
2022/03/18 03:19:16;;;;;;;;;;;;;;;;;;1035502;28;838;-37
2022/03/18 03:19:46;;;;;;;;;;;;;;;;;;1035428;28;903;-38
2022/03/18 03:20:17;;;;;;;;;;;;;;;;;;1035288;28;830;-38
2022/03/18 03:20:48;;;;;;;;;;;;;;;;;;1035451;28;1092;-34
2022/03/18 03:21:18;;;;;;;;;;;;;;;;;;1035295;28;938;-37
2022/03/18 03:21:48;;;;;;;;;;;;;;;;;;1034973;28;870;-37
2022/03/18 03:22:19;;;;;;;;;;;;;;;;;;1035232;28;878;-37
2022/03/18 03:22:49;;;;;;;;;;;;;;;;;;1035468;28;921;-38
2022/03/18 03:23:19;;;;;;;;;;;;;;;;;;1035501;28;890;-34
2022/03/18 03:23:50;;;;;;;;;;;;;;;;;;1035367;28;794;-37
2022/03/18 03:24:20;;;;;;;;;;;;;;;;;;1035352;28;1089;-37
2022/03/18 03:24:51;;;;;;;;;;;;;;;;;;1035461;28;803;-37
2022/03/18 03:25:21;;;;;;;;;;;;;;;;;;1037848;28;1153;-38
2022/03/18 03:25:55;;;;;;;;;;;;;;;;;;1039619;28;882;-37
2022/03/18 03:26:25;;;;;;;;;;;;;;;;;;1039286;28;1710;-35
2022/03/18 03:26:55;;;;;;;;;;;;;;;;;;1039532;28;977;-35
2022/03/18 03:27:31;;;;;;;;;;;;;;;;;;1039239;28;1914;-37
2022/03/18 03:28:02;;;;;;;;;;;;;;;;;;1039436;28;783;-37
2022/03/18 03:28:32;;;;;;;;;;;;;;;;;;1039393;28;867;-36
2022/03/18 03:29:03;;;;;;;;;;;;;;;;;;1039203;28;865;-38
2022/03/18 03:29:33;;;;;;;;;;;;;;;;;;1039237;28;893;-37
2022/03/18 03:30:05;;;;;;;;;;;;;;;;;;1039503;28;894;-37
2022/03/18 03:30:35;;;;;;;;;;;;;;;;;;1039372;28;823;-37
2022/03/18 03:31:06;;;;;;;;;;;;;;;;;;1039495;28;839;-39
2022/03/18 03:31:36;;;;;;;;;;;;;;;;;;1039515;28;814;-35
2022/03/18 03:32:06;;;;;;;;;;;;;;;;;;1039372;28;926;-36
2022/03/18 03:32:37;;;;;;;;;;;;;;;;;;1039494;28;941;-38
2022/03/18 03:33:07;;;;;;;;;;;;;;;;;;1039361;28;806;-37
2022/03/18 03:33:38;;;;;;;;;;;;;;;;;;1039561;28;890;-38
2022/03/18 03:34:08;;;;;;;;;;;;;;;;;;1039452;28;906;-37
2022/03/18 03:34:38;;;;;;;;;;;;;;;;;;1039429;28;898;-36
2022/03/18 03:35:10;;;;;;;;;;;;;;;;;;1039320;28;1351;-38
2022/03/18 03:35:41;;;;;;;;;;;;;;;;;;1039442;28;799;-38
2022/03/18 03:36:11;;;;;;;;;;;;;;;;;;1039420;28;922;-38
2022/03/18 03:36:42;;;;;;;;;;;;;;;;;;1038905;28;842;-37
2022/03/18 03:37:14;;;;;;;;;;;;;;;;;;1039235;28;997;-38
2022/03/18 03:37:44;;;;;;;;;;;;;;;;;;1039510;28;870;-36
2022/03/18 03:38:14;;;;;;;;;;;;;;;;;;1039295;28;906;-38
2022/03/18 03:38:44;;;;;;;;;;;;;;;;;;1039616;28;961;-37
2022/03/18 03:39:15;;;;;;;;;;;;;;;;;;1039370;28;827;-38
2022/03/18 03:39:45;;;;;;;;;;;;;;;;;;1039575;28;883;-38
2022/03/18 03:40:15;;;;;;;;;;;;;;;;;;1039392;28;885;-35
2022/03/18 03:40:47;;;;;;;;;;;;;;;;;;1039510;28;803;-38
2022/03/18 03:41:21;;;;;;;;;;;;;;;;;;1039398;28;902;-37
2022/03/18 03:41:51;;;;;;;;;;;;;;;;;;1039428;28;976;-37
2022/03/18 03:42:22;;;;;;;;;;;;;;;;;;1039359;28;866;-36
2022/03/18 03:42:53;;;;;;;;;;;;;;;;;;1039551;28;926;-38
2022/03/18 03:43:23;;;;;;;;;;;;;;;;;;1039350;28;799;-38
2022/03/18 03:43:53;;;;;;;;;;;;;;;;;;1039050;28;941;-38
2022/03/18 03:44:24;;;;;;;;;;;;;;;;;;1039260;28;858;-37
2022/03/18 03:44:54;;;;;;;;;;;;;;;;;;1039416;28;986;-38
2022/03/18 03:45:24;;;;;;;;;;;;;;;;;;1039418;28;948;-38